Terminal Aerodrome Forecast
Issued by NWS Boston, MA

Home | Current Version | Previous Version | Text Only | Print | Product List | Glossary On
Versions: 1 2 3 4 5 6 7 8 9 10 11 12 13 14 15 16 17 18 19 20 21 22 23 24 25 26 27 28 29 30 31 32 33 34 35 36 37 38 39 40 41 42 43 44 45
000
FTUS41 KBOX 292205 AAA
TAFBDL
TAF AMD
KBDL 292205Z 2922/3024 12006KT P6SM SCT120 BKN140
     FM300400 16004KT 3SM -SN OVC010
     FM301400 26004KT 1SM -SN OVC008
     FM301500 27004KT P6SM OVC015
     FM301800 33008KT P6SM OVC025
     FM302100 31012G25KT P6SM OVC050=

USA.gov is the U.S. government's official web portal to all federal, state and local government web resources and services.